Time;durP1;ratioP1;P1;durP2;ratioP2;P2;SDS_P1;SDS_P2;PMS_P1;PMS_P2;Temp;Humidity;BMP_temperature;BMP_pressure;BME280_temperature;BME280_humidity;BME280_pressure;Samples;Min_cycle;Max_cycle;Signal;HPM_P1;HPM_P2
2021/11/30 00:02:05;;;;;;;21.23;4.55;;;;;;;19.10;55.40;100798.78;4894044;29;20037;-66
2021/11/30 00:04:33;;;;;;;20.70;3.33;;;;;;;19.02;55.83;100816.81;4893970;29;20049;-65
2021/11/30 00:07:02;;;;;;;18.15;2.80;;;;;;;18.98;56.10;100831.13;4878456;29;20040;-65
2021/11/30 00:12:19;;;;;;;15.82;2.67;;;;;;;18.92;56.36;100849.09;4894908;29;20053;-66
2021/11/30 00:14:49;;;;;;;20.00;2.85;;;;;;;18.89;56.51;100852.72;4893891;29;20057;-65
2021/11/30 00:17:18;;;;;;;16.73;2.67;;;;;;;18.91;56.36;100853.56;4877296;29;20052;-65
2021/11/30 00:19:48;;;;;;;23.02;3.30;;;;;;;18.93;56.63;100846.41;4894213;29;20045;-65
2021/11/30 00:22:21;;;;;;;24.70;4.15;;;;;;;18.95;56.36;100844.59;4902490;29;20083;-66
2021/11/30 00:24:50;;;;;;;16.15;3.28;;;;;;;18.96;56.31;100845.47;4892024;29;20516;-66
2021/11/30 00:27:20;;;;;;;18.48;2.67;;;;;;;18.92;56.34;100839.28;4894032;29;20052;-66
2021/11/30 00:29:48;;;;;;;13.27;2.17;;;;;;;18.88;56.32;100848.28;4895685;29;20045;-66
2021/11/30 00:32:16;;;;;;;14.18;2.15;;;;;;;18.87;56.11;100861.66;4875192;29;20124;-65
2021/11/30 00:34:44;;;;;;;21.77;2.53;;;;;;;18.84;56.25;100865.25;4878114;29;20048;-65
2021/11/30 00:37:11;;;;;;;11.95;2.15;;;;;;;18.81;56.38;100860.00;4890564;29;20041;-65
2021/11/30 00:39:39;;;;;;;23.17;2.78;;;;;;;18.77;56.53;100858.28;4892668;29;20108;-65
2021/11/30 00:42:08;;;;;;;30.35;4.25;;;;;;;18.68;56.63;100851.28;4894184;29;20132;-66
2021/11/30 00:44:39;;;;;;;19.75;3.10;;;;;;;18.59;56.78;100843.41;4892298;29;20045;-66
2021/11/30 00:47:16;;;;;;;16.60;2.00;;;;;;;18.48;57.05;100841.78;4892863;29;20382;-66
2021/11/30 00:49:44;;;;;;;15.95;2.42;;;;;;;18.41;57.07;100840.09;4909120;29;20622;-66
2021/11/30 00:52:13;;;;;;;20.08;2.30;;;;;;;18.38;56.14;100845.50;4881098;29;20045;-65
2021/11/30 00:54:42;;;;;;;21.13;2.40;;;;;;;18.35;55.44;100849.09;4882891;29;20494;-66
2021/11/30 00:57:10;;;;;;;13.52;2.10;;;;;;;18.35;54.91;100838.41;4877699;29;20055;-66
2021/11/30 00:59:39;;;;;;;16.63;2.58;;;;;;;18.33;54.43;100838.41;4877199;29;20041;-65
2021/11/30 01:02:07;;;;;;;25.08;4.47;;;;;;;18.28;54.13;100832.25;4892896;29;20041;-66
2021/11/30 01:04:35;;;;;;;16.02;2.65;;;;;;;18.27;53.74;100833.16;4879026;29;20048;-66
2021/11/30 01:07:03;;;;;;;21.70;3.30;;;;;;;18.30;53.64;100832.25;4887266;29;20064;-66
2021/11/30 01:09:31;;;;;;;22.10;2.80;;;;;;;18.30;53.55;100821.56;4896406;29;20520;-66
2021/11/30 01:11:59;;;;;;;20.48;3.15;;;;;;;18.28;53.69;100816.22;4897724;29;20089;-66
2021/11/30 01:14:27;;;;;;;20.35;3.10;;;;;;;18.23;53.82;100811.88;4880319;29;20045;-66
2021/11/30 01:16:56;;;;;;;25.95;3.17;;;;;;;18.18;53.81;100813.72;4878154;29;20041;-66
2021/11/30 01:19:24;;;;;;;14.00;1.63;;;;;;;18.13;54.02;100824.47;4879743;29;20065;-66
2021/11/30 01:21:52;;;;;;;21.10;3.50;;;;;;;18.10;54.23;100824.53;4876235;29;20057;-66
2021/11/30 01:24:20;;;;;;;12.52;1.80;;;;;;;18.03;54.55;100828.19;4892004;29;20068;-65
2021/11/30 01:26:48;;;;;;;11.57;1.25;;;;;;;17.93;54.76;100839.88;4893398;29;20409;-66
2021/11/30 01:29:15;;;;;;;25.85;3.30;;;;;;;17.89;54.79;100835.50;4915853;29;20623;-65
2021/11/30 01:31:43;;;;;;;19.08;2.90;;;;;;;17.82;54.84;100824.00;4916756;29;20048;-66
2021/11/30 01:34:13;;;;;;;12.68;2.30;;;;;;;17.79;54.59;100837.38;4921050;29;20040;-66
2021/11/30 01:36:40;;;;;;;19.02;2.90;;;;;;;17.79;54.35;100833.81;4899231;29;20044;-65
2021/11/30 01:39:08;;;;;;;21.40;3.42;;;;;;;17.72;54.29;100833.03;4915678;29;20048;-66
2021/11/30 01:41:39;;;;;;;12.38;2.00;;;;;;;17.69;54.03;100837.53;4898386;29;20071;-65
2021/11/30 01:44:12;;;;;;;9.82;1.27;;;;;;;17.68;53.70;100833.97;4915287;29;20048;-65
2021/11/30 01:46:55;;;;;;;15.35;1.88;;;;;;;17.72;53.55;100821.50;4919618;29;20417;-65
2021/11/30 01:49:35;;;;;;;15.57;2.10;;;;;;;17.77;53.36;100819.63;4919420;29;20075;-65
2021/11/30 01:52:04;;;;;;;20.23;3.25;;;;;;;17.76;53.52;100808.06;4926535;29;20515;-65
2021/11/30 01:54:32;;;;;;;16.95;2.13;;;;;;;17.72;53.73;100790.28;4917428;29;20103;-66
2021/11/30 01:57:00;;;;;;;12.07;1.25;;;;;;;17.67;53.96;100791.28;4930369;29;20052;-66
2021/11/30 01:59:28;;;;;;;11.52;1.65;;;;;;;17.67;54.21;100791.28;4915439;29;20115;-66
2021/11/30 02:01:56;;;;;;;16.10;2.15;;;;;;;17.69;54.35;100786.81;4915052;29;20044;-65
2021/11/30 02:04:25;;;;;;;20.67;1.60;;;;;;;17.71;54.42;100807.25;4914936;29;20068;-66
2021/11/30 02:06:53;;;;;;;14.43;1.95;;;;;;;17.71;54.52;100799.25;4908575;29;20040;-66
2021/11/30 02:09:21;;;;;;;9.00;1.75;;;;;;;17.70;54.67;100815.28;4915109;29;20071;-65
2021/11/30 02:11:50;;;;;;;22.27;2.17;;;;;;;17.68;54.81;100831.31;4907112;29;20052;-66
2021/11/30 02:14:17;;;;;;;13.88;1.88;;;;;;;17.68;54.57;100814.41;4896077;29;20121;-65
2021/11/30 02:16:46;;;;;;;11.50;2.08;;;;;;;17.69;54.08;100819.72;4894927;29;20553;-66
2021/11/30 02:19:15;;;;;;;7.07;1.42;;;;;;;17.69;53.41;100806.38;4905381;29;20040;-65
2021/11/30 02:21:44;;;;;;;11.38;2.35;;;;;;;17.71;51.99;100807.25;4911547;29;20056;-65
2021/11/30 02:24:12;;;;;;;16.55;1.38;;;;;;;17.75;51.27;100816.97;4914556;29;20067;-65
2021/11/30 02:26:41;;;;;;;14.82;1.45;;;;;;;17.78;49.87;100805.38;4913941;29;20048;-66
2021/11/30 02:29:12;;;;;;;18.27;1.38;;;;;;;17.85;49.28;100804.41;4899230;29;20036;-66
2021/11/30 02:31:45;;;;;;;10.02;1.40;;;;;;;17.89;48.87;100808.78;4910200;29;20058;-66
2021/11/30 02:34:13;;;;;;;15.60;1.40;;;;;;;17.91;48.84;100802.53;4896261;29;20041;-66
2021/11/30 02:39:27;;;;;;;16.67;1.88;;;;;;;17.97;48.11;100803.34;4927543;29;20131;-65
2021/11/30 02:41:56;;;;;;;11.18;1.30;;;;;;;17.99;48.38;100783.69;4928006;29;20119;-66
2021/11/30 02:44:26;;;;;;;14.05;2.28;;;;;;;18.00;49.05;100798.81;4897415;29;20420;-66
2021/11/30 02:46:56;;;;;;;11.00;1.67;;;;;;;18.02;49.47;100788.13;4914562;29;20048;-66
2021/11/30 02:49:26;;;;;;;21.73;2.92;;;;;;;18.03;49.66;100773.88;4902875;29;20059;-66
2021/11/30 02:52:02;;;;;;;13.77;2.28;;;;;;;18.06;49.84;100773.81;4928547;29;20440;-65
2021/11/30 02:54:30;;;;;;;18.75;2.17;;;;;;;18.04;50.27;100787.22;4932659;29;20040;-66
2021/11/30 02:57:01;;;;;;;16.00;1.90;;;;;;;18.05;50.52;100772.91;4933284;29;20047;-66
2021/11/30 02:59:30;;;;;;;12.18;2.60;;;;;;;18.04;50.89;100771.19;4925090;29;20044;-65
2021/11/30 03:02:02;;;;;;;11.60;1.50;;;;;;;18.01;51.29;100770.31;4914867;29;20091;-66
2021/11/30 03:04:31;;;;;;;11.70;2.90;;;;;;;17.98;51.69;100755.25;4886612;29;20100;-66
2021/11/30 03:07:00;;;;;;;20.98;2.60;;;;;;;18.00;52.02;100763.22;4882561;29;20124;-66
2021/11/30 03:09:29;;;;;;;12.95;2.47;;;;;;;17.97;52.29;100772.16;4926501;29;20071;-66
2021/11/30 03:11:57;;;;;;;16.50;2.10;;;;;;;17.96;52.49;100764.16;4904406;29;20421;-66
2021/11/30 03:14:28;;;;;;;21.70;3.58;;;;;;;17.94;52.79;100769.53;4927443;29;20048;-66
2021/11/30 03:16:57;;;;;;;19.35;1.88;;;;;;;17.91;53.09;100772.25;4914140;29;20044;-66
2021/11/30 03:19:26;;;;;;;14.68;2.38;;;;;;;17.88;53.63;100782.97;4914128;29;20072;-66
2021/11/30 03:21:54;;;;;;;15.10;2.75;;;;;;;17.86;54.13;100793.66;4895999;29;20047;-66
2021/11/30 03:24:23;;;;;;;25.73;3.47;;;;;;;17.89;54.65;100796.31;4913801;29;20176;-66
2021/11/30 03:26:51;;;;;;;17.20;2.83;;;;;;;17.90;55.29;100805.22;4923710;29;20051;-66
2021/11/30 03:29:19;;;;;;;13.82;2.38;;;;;;;17.90;55.43;100816.78;4925795;29;20048;-66
2021/11/30 03:31:52;;;;;;;14.10;2.42;;;;;;;17.90;55.52;100816.78;4912920;29;20080;-66
2021/11/30 03:34:21;;;;;;;20.20;3.03;;;;;;;17.94;55.84;100820.28;4914408;29;20040;-66
2021/11/30 03:36:51;;;;;;;20.15;2.60;;;;;;;17.95;56.07;100831.84;4913280;29;20295;-66
2021/11/30 03:39:21;;;;;;;19.00;1.98;;;;;;;17.94;55.99;100841.66;4913240;29;20052;-66
2021/11/30 03:41:52;;;;;;;18.25;1.98;;;;;;;17.94;55.88;100849.66;4896249;29;20409;-66
2021/11/30 03:44:20;;;;;;;17.45;2.95;;;;;;;17.91;55.74;100852.41;4913213;29;20048;-65
2021/11/30 03:46:49;;;;;;;23.90;4.32;;;;;;;17.94;55.55;100844.31;4913510;29;20048;-66
2021/11/30 03:49:17;;;;;;;19.75;2.88;;;;;;;17.96;55.46;100844.31;4913472;29;20036;-65
2021/11/30 03:51:45;;;;;;;17.60;2.45;;;;;;;17.94;55.46;100838.97;4921049;29;20056;-66
2021/11/30 03:54:14;;;;;;;26.00;2.53;;;;;;;17.91;55.52;100826.56;4915296;29;20117;-66
2021/11/30 03:56:42;;;;;;;16.77;2.05;;;;;;;17.90;55.67;100829.25;4914555;29;20694;-66
2021/11/30 03:59:12;;;;;;;15.95;2.40;;;;;;;17.94;55.72;100833.63;4913369;29;20404;-66
2021/11/30 04:01:40;;;;;;;24.27;2.00;;;;;;;17.93;55.96;100831.88;4913906;29;20059;-66
2021/11/30 04:04:22;;;;;;;25.63;3.00;;;;;;;17.94;56.26;100825.63;4921309;29;20510;-65
2021/11/30 04:06:53;;;;;;;19.88;1.80;;;;;;;17.96;56.69;100825.63;4898325;29;20052;-65
2021/11/30 04:09:21;;;;;;;17.10;1.98;;;;;;;17.93;56.76;100827.41;4898209;29;20108;-66
2021/11/30 04:11:50;;;;;;;24.80;2.63;;;;;;;17.91;56.76;100817.66;4929840;29;20103;-66
2021/11/30 04:14:20;;;;;;;21.15;2.75;;;;;;;17.89;56.61;100824.81;4930308;29;20042;-65
2021/11/30 04:16:49;;;;;;;12.68;1.83;;;;;;;17.89;56.09;100830.16;4931641;29;20059;-66
2021/11/30 04:19:17;;;;;;;29.73;3.50;;;;;;;17.89;55.95;100827.47;4931973;29;20032;-65
2021/11/30 04:21:45;;;;;;;23.58;2.38;;;;;;;17.87;55.89;100832.84;4928544;29;20059;-66
2021/11/30 04:24:13;;;;;;;16.02;1.60;;;;;;;17.84;55.86;100834.69;4919760;29;20103;-66
2021/11/30 04:26:41;;;;;;;24.35;3.22;;;;;;;17.82;55.75;100841.81;4895991;29;20111;-66
2021/11/30 04:29:08;;;;;;;14.57;2.95;;;;;;;17.81;55.64;100837.38;4912880;29;20044;-66
2021/11/30 04:31:38;;;;;;;18.75;2.50;;;;;;;17.80;55.36;100833.81;4924685;29;20460;-66
2021/11/30 04:34:06;;;;;;;25.55;3.13;;;;;;;17.79;55.21;100824.03;4931651;29;20099;-66
2021/11/30 04:36:35;;;;;;;22.65;2.78;;;;;;;17.82;55.12;100818.66;4923365;29;20070;-66
2021/11/30 04:39:04;;;;;;;21.42;2.42;;;;;;;17.81;55.08;100811.56;4912373;29;20124;-66
2021/11/30 04:41:33;;;;;;;19.25;2.42;;;;;;;17.78;54.98;100819.63;4911029;29;20401;-68
2021/11/30 04:44:00;;;;;;;23.42;2.88;;;;;;;17.74;54.86;100823.22;4894140;29;20445;-66
2021/11/30 04:46:39;;;;;;;17.70;1.80;;;;;;;17.72;54.68;100838.38;4914914;29;20051;-66
2021/11/30 04:49:13;;;;;;;15.20;2.38;;;;;;;17.70;54.08;100845.53;4915187;29;20445;-66
2021/11/30 04:51:41;;;;;;;6.75;1.10;;;;;;;17.69;53.91;100843.75;4910651;29;20488;-65
2021/11/30 04:54:09;;;;;;;15.85;2.72;;;;;;;17.71;53.95;100851.75;4912744;29;20107;-66
2021/11/30 04:56:37;;;;;;;17.63;2.40;;;;;;;17.71;53.74;100833.06;4912783;29;20056;-66
2021/11/30 04:59:04;;;;;;;8.05;1.40;;;;;;;17.72;53.28;100840.19;4912415;29;20515;-66
2021/11/30 05:01:32;;;;;;;19.48;1.80;;;;;;;17.72;52.87;100849.03;4883715;29;20044;-65
2021/11/30 05:04:00;;;;;;;18.27;1.75;;;;;;;17.73;53.10;100853.47;4911869;29;20040;-66
2021/11/30 05:06:29;;;;;;;16.25;2.97;;;;;;;17.76;53.17;100853.47;4929308;29;20313;-66
2021/11/30 05:09:01;;;;;;;19.30;1.70;;;;;;;17.74;53.99;100846.38;4914725;29;20099;-66
2021/11/30 05:11:29;;;;;;;18.27;1.90;;;;;;;17.73;54.82;100858.81;4916130;29;20048;-66
2021/11/30 05:13:57;;;;;;;24.85;2.60;;;;;;;17.73;55.06;100855.28;4912147;29;20148;-66
2021/11/30 05:16:25;;;;;;;35.95;3.38;;;;;;;17.73;55.74;100847.25;4912531;29;20047;-66
2021/11/30 05:18:52;;;;;;;17.65;1.83;;;;;;;17.75;56.63;100837.44;4912288;29;20740;-66
2021/11/30 05:21:20;;;;;;;13.63;2.30;;;;;;;17.75;57.22;100843.69;4912131;29;20036;-66
2021/11/30 05:23:49;;;;;;;22.30;3.75;;;;;;;17.76;57.78;100836.56;4912417;29;20516;-65
2021/11/30 05:26:17;;;;;;;14.55;2.83;;;;;;;17.74;58.25;100828.56;4912051;29;20052;-66
2021/11/30 05:28:45;;;;;;;13.73;2.22;;;;;;;17.75;58.28;100816.97;4924002;29;20511;-66
2021/11/30 05:31:14;;;;;;;16.08;1.70;;;;;;;17.77;57.93;100830.31;4912448;29;20390;-66
2021/11/30 05:33:43;;;;;;;18.15;2.88;;;;;;;17.79;57.20;100842.72;4925808;29;20413;-66
2021/11/30 05:36:12;;;;;;;24.73;2.70;;;;;;;17.85;56.74;100847.97;4893345;29;20127;-66
2021/11/30 05:38:39;;;;;;;20.67;3.28;;;;;;;17.92;56.26;100849.69;4880103;29;20076;-66
2021/11/30 05:41:09;;;;;;;20.38;3.13;;;;;;;18.01;56.42;100862.03;4897210;29;20044;-66
2021/11/30 05:43:37;;;;;;;24.67;6.15;;;;;;;18.04;56.75;100864.69;4912411;29;20523;-66
2021/11/30 05:46:06;;;;;;;22.27;4.53;;;;;;;18.10;56.97;100867.28;4908947;29;20052;-66
2021/11/30 05:48:34;;;;;;;12.95;2.17;;;;;;;18.16;57.34;100887.69;4877620;29;20341;-66
2021/11/30 05:51:03;;;;;;;24.80;3.13;;;;;;;18.22;57.55;100885.81;4882394;29;20167;-66
2021/11/30 05:53:31;;;;;;;28.95;5.68;;;;;;;18.28;57.81;100891.06;4897702;29;20454;-66
2021/11/30 05:56:01;;;;;;;34.35;5.72;;;;;;;18.35;57.58;100894.53;4915237;29;20468;-66
2021/11/30 05:58:34;;;;;;;18.55;2.03;;;;;;;18.42;57.15;100898.88;4906799;29;20379;-66
2021/11/30 06:01:09;;;;;;;27.83;4.05;;;;;;;18.48;57.04;100898.78;4903768;29;20076;-66
2021/11/30 06:03:55;;;;;;;32.40;8.52;;;;;;;18.54;57.27;100895.16;4912981;29;20041;-66
2021/11/30 06:06:23;;;;;;;31.98;6.07;;;;;;;18.57;57.74;100884.44;4901739;29;20052;-66
2021/11/30 06:08:51;;;;;;;29.88;4.25;;;;;;;18.59;57.99;100866.56;4915137;29;20044;-65
2021/11/30 06:11:19;;;;;;;27.73;5.70;;;;;;;18.55;58.45;100870.19;4914366;29;20052;-66
2021/11/30 06:13:49;;;;;;;34.30;7.38;;;;;;;18.61;58.54;100875.47;4896971;29;20048;-66
2021/11/30 06:16:16;;;;;;;31.45;4.60;;;;;;;18.70;58.63;100870.88;4914619;29;20613;-66
2021/11/30 06:18:44;;;;;;;36.13;5.13;;;;;;;18.82;58.58;100863.53;4914149;29;20162;-66
2021/11/30 06:21:12;;;;;;;33.72;4.50;;;;;;;18.95;58.75;100866.00;4914888;29;20048;-65
2021/11/30 06:23:40;;;;;;;29.50;5.70;;;;;;;19.10;58.55;100860.34;4913530;29;20048;-66
2021/11/30 06:26:11;;;;;;;34.03;5.45;;;;;;;19.11;58.57;100869.25;4914678;29;20107;-66
2021/11/30 06:28:40;;;;;;;39.30;8.30;;;;;;;19.12;58.69;100868.34;4914714;29;20682;-65
2021/11/30 06:31:09;;;;;;;35.35;7.07;;;;;;;19.04;59.01;100881.88;4914727;29;20494;-66
2021/11/30 06:33:38;;;;;;;30.13;5.70;;;;;;;19.05;59.70;100867.59;4887242;29;20618;-66
2021/11/30 06:36:06;;;;;;;46.13;5.35;;;;;;;19.24;59.71;100872.59;4921461;29;20036;-66
2021/11/30 06:38:34;;;;;;;35.85;6.22;;;;;;;19.46;59.59;100865.97;4895385;29;20044;-66
2021/11/30 06:41:02;;;;;;;25.92;8.30;;;;;;;19.65;59.26;100861.16;4893524;29;20052;-67
2021/11/30 06:43:30;;;;;;;32.13;11.60;;;;;;;19.83;58.20;100879.53;4897220;29;20040;-66
2021/11/30 06:45:58;;;;;;;31.42;10.13;;;;;;;19.99;57.39;100880.09;4917033;29;20108;-66
2021/11/30 06:48:27;;;;;;;21.15;4.25;;;;;;;20.16;57.20;100870.75;4880252;29;20044;-66
2021/11/30 06:50:54;;;;;;;19.13;3.45;;;;;;;20.35;56.19;100890.03;4899541;29;20409;-65
2021/11/30 06:53:24;;;;;;;32.45;3.22;;;;;;;20.53;56.07;100889.66;4910547;29;20721;-66
2021/11/30 06:55:52;;;;;;;22.10;4.00;;;;;;;20.73;54.87;100881.13;4905053;29;20059;-66
2021/11/30 06:58:19;;;;;;;18.92;5.45;;;;;;;20.78;53.93;100889.06;4896269;29;20123;-66
2021/11/30 07:00:50;;;;;;;20.58;4.00;;;;;;;20.71;53.59;100885.63;4913052;29;20111;-66
2021/11/30 07:03:20;;;;;;;35.22;16.48;;;;;;;20.56;54.17;100897.59;4913703;29;20500;-66
2021/11/30 07:05:53;;;;;;;44.03;30.85;;;;;;;20.58;53.92;100910.97;4891209;29;20044;-66
2021/11/30 07:08:23;;;;;;;48.13;22.08;;;;;;;20.41;54.23;100911.38;4915225;29;20163;-66
2021/11/30 07:10:52;;;;;;;51.50;30.73;;;;;;;20.22;54.48;100916.22;4910730;29;20040;-66
2021/11/30 07:16:05;;;;;;;43.10;16.23;;;;;;;19.93;55.71;100929.34;4900300;29;20050;-67
2021/11/30 07:18:35;;;;;;;35.25;13.70;;;;;;;19.84;56.51;100926.84;4901041;29;20084;-66
2021/11/30 07:21:05;;;;;;;43.92;22.52;;;;;;;19.81;56.67;100929.59;4900356;29;20050;-66
2021/11/30 07:23:34;;;;;;;50.15;31.80;;;;;;;19.77;57.08;100933.22;4902452;29;20135;-66
2021/11/30 07:26:02;;;;;;;60.97;38.53;;;;;;;19.76;57.42;100936.81;4900451;29;20592;-65
2021/11/30 07:28:32;;;;;;;51.25;28.35;;;;;;;19.78;57.78;100940.34;4911037;29;20063;-66
2021/11/30 07:31:03;;;;;;;53.60;27.95;;;;;;;19.88;57.92;100939.28;4906282;29;20130;-66
2021/11/30 07:33:32;;;;;;;38.92;20.08;;;;;;;20.10;58.05;100935.22;4902082;29;20100;-66
2021/11/30 07:36:01;;;;;;;29.25;10.63;;;;;;;20.35;58.01;100945.50;4901655;29;20052;-66
2021/11/30 07:38:31;;;;;;;47.17;22.75;;;;;;;20.61;57.56;100943.97;4900223;29;20981;-66
2021/11/30 07:40:59;;;;;;;53.38;28.58;;;;;;;20.86;57.44;100952.38;4884439;29;20060;-65
2021/11/30 07:43:27;;;;;;;42.10;25.95;;;;;;;20.87;57.15;100966.66;4892068;29;20450;-66
2021/11/30 07:45:55;;;;;;;40.60;18.25;;;;;;;21.00;56.78;100954.72;4878922;29;20063;-65
2021/11/30 07:48:23;;;;;;;36.38;23.02;;;;;;;21.09;56.42;100944.63;4877622;29;20076;-65
2021/11/30 07:50:52;;;;;;;35.65;21.17;;;;;;;21.04;55.94;100951.03;4889067;29;20065;-65
2021/11/30 07:53:20;;;;;;;39.33;23.35;;;;;;;20.99;55.79;100948.47;4872369;29;20049;-66
2021/11/30 07:55:50;;;;;;;40.58;27.17;;;;;;;21.23;55.64;100946.13;4884216;29;20049;-66
2021/11/30 07:58:19;;;;;;;29.48;17.67;;;;;;;21.48;55.45;100950.81;4889124;29;20446;-66
2021/11/30 08:00:47;;;;;;;19.48;8.90;;;;;;;21.69;55.11;100941.31;4862842;29;20055;-66
2021/11/30 08:03:15;;;;;;;16.00;2.58;;;;;;;21.96;53.52;100928.94;4872268;29;20049;-66
2021/11/30 08:05:43;;;;;;;14.27;1.90;;;;;;;22.09;52.76;100924.97;4878117;29;20075;-66
2021/11/30 08:08:12;;;;;;;15.43;2.17;;;;;;;22.29;51.31;100916.31;4880023;29;20052;-66
2021/11/30 08:10:39;;;;;;;8.75;2.33;;;;;;;22.46;51.12;100940.00;4863207;29;20104;-66
2021/11/30 08:13:08;;;;;;;13.27;2.40;;;;;;;22.79;50.09;100927.34;4877750;29;20636;-66
2021/11/30 08:15:37;;;;;;;8.88;1.45;;;;;;;23.03;48.41;100919.38;4888953;29;20040;-66
2021/11/30 08:18:05;;;;;;;8.18;1.60;;;;;;;23.28;45.52;100894.28;4876699;29;20500;-66
2021/11/30 08:20:33;;;;;;;9.55;1.20;;;;;;;23.33;44.22;100895.88;4890130;29;20120;-67
2021/11/30 08:23:01;;;;;;;10.23;1.60;;;;;;;23.37;43.87;100910.09;4891257;29;20100;-66
2021/11/30 08:25:29;;;;;;;7.93;1.95;;;;;;;23.35;44.26;100907.50;4911701;29;20086;-66
2021/11/30 08:27:57;;;;;;;6.90;1.75;;;;;;;23.45;44.85;100906.22;4923149;29;20048;-66
2021/11/30 08:30:27;;;;;;;8.27;2.03;;;;;;;23.65;44.79;100880.41;4908284;29;20377;-66
2021/11/30 08:32:55;;;;;;;11.32;1.67;;;;;;;23.69;45.31;100933.28;4903048;29;20113;-66
2021/11/30 08:35:23;;;;;;;15.52;2.22;;;;;;;23.77;46.40;100940.16;4887876;29;20061;-68
2021/11/30 08:37:50;;;;;;;9.75;1.80;;;;;;;23.91;47.18;100930.69;4893908;29;20446;-66
2021/11/30 08:40:18;;;;;;;16.27;2.13;;;;;;;24.03;47.54;100935.63;4882465;29;20128;-66
2021/11/30 08:42:46;;;;;;;11.48;1.83;;;;;;;24.22;48.09;100937.59;4864062;29;20577;-66
2021/11/30 08:45:14;;;;;;;11.20;1.88;;;;;;;24.43;46.80;100933.22;4892497;29;20068;-66
2021/11/30 08:47:46;;;;;;;8.15;1.30;;;;;;;24.74;46.40;100934.72;4908102;29;20051;-66
2021/11/30 08:50:17;;;;;;;10.13;1.75;;;;;;;25.02;45.20;100938.94;4892818;29;20116;-66
2021/11/30 08:52:45;;;;;;;7.97;2.50;;;;;;;25.01;42.55;100926.38;4879168;29;20041;-66
2021/11/30 08:55:13;;;;;;;8.70;2.95;;;;;;;24.85;40.35;100924.34;4884531;29;20131;-66
2021/11/30 08:57:41;;;;;;;9.15;1.65;;;;;;;24.47;41.00;100952.88;4887419;29;20763;-66
2021/11/30 09:00:11;;;;;;;7.88;2.28;;;;;;;24.61;42.28;100932.47;4899522;29;20442;-66
2021/11/30 09:02:39;;;;;;;8.65;3.00;;;;;;;24.89;40.25;100863.84;4878803;29;20067;-67
2021/11/30 09:05:11;;;;;;;8.70;1.60;;;;;;;24.77;39.90;100942.69;4905796;29;20115;-67
2021/11/30 09:07:39;;;;;;;7.68;2.63;;;;;;;24.74;40.36;100948.22;4918994;29;20404;-67
2021/11/30 09:10:09;;;;;;;9.73;2.92;;;;;;;24.29;39.57;100924.75;4918011;29;20181;-66
2021/11/30 09:12:37;;;;;;;10.88;1.73;;;;;;;24.04;40.47;100930.19;4928564;29;20111;-66
2021/11/30 09:15:06;;;;;;;5.28;1.35;;;;;;;24.08;40.43;100929.16;4915615;29;20047;-66
2021/11/30 09:17:36;;;;;;;8.30;1.05;;;;;;;24.13;40.29;100934.34;4915018;29;20052;-66
2021/11/30 09:20:05;;;;;;;4.13;0.77;;;;;;;24.16;40.33;100942.31;4927855;29;20501;-66
2021/11/30 09:22:34;;;;;;;3.05;0.60;;;;;;;24.02;39.81;100940.16;4917585;29;20154;-68
2021/11/30 09:25:05;;;;;;;6.70;0.82;;;;;;;23.86;39.87;100929.97;4893016;29;20045;-66
2021/11/30 09:27:33;;;;;;;4.97;1.10;;;;;;;23.77;40.22;100928.47;4877052;29;20052;-68
2021/11/30 09:30:02;;;;;;;10.40;4.00;;;;;;;23.69;40.40;100934.19;4885809;29;20057;-66
2021/11/30 09:32:31;;;;;;;18.27;5.95;;;;;;;23.47;41.18;100914.28;4904714;29;20057;-66
2021/11/30 09:34:59;;;;;;;12.50;4.72;;;;;;;23.39;41.93;100903.75;4881331;29;20048;-66
2021/11/30 09:37:27;;;;;;;10.27;2.45;;;;;;;23.40;42.29;100896.53;4887454;29;20059;-66
2021/11/30 09:39:58;;;;;;;13.82;4.22;;;;;;;23.17;41.74;100902.72;4876538;29;20045;-66
2021/11/30 09:42:26;;;;;;;13.27;5.80;;;;;;;22.93;42.49;100898.16;4877805;29;20128;-66
2021/11/30 09:44:55;;;;;;;11.40;3.35;;;;;;;22.88;42.56;100900.13;4884340;29;20089;-66
2021/11/30 09:47:23;;;;;;;9.32;2.33;;;;;;;22.83;42.38;100897.59;4895949;29;20052;-66
2021/11/30 09:49:51;;;;;;;7.40;1.10;;;;;;;22.83;42.03;100892.22;4891068;29;20052;-66
2021/11/30 09:52:18;;;;;;;15.07;1.88;;;;;;;22.80;41.90;100886.03;4877989;29;20073;-66
2021/11/30 09:54:46;;;;;;;9.07;1.20;;;;;;;22.62;41.74;100888.38;4876262;29;20053;-67
2021/11/30 09:57:16;;;;;;;7.45;1.45;;;;;;;22.57;41.95;100884.06;4877467;29;20047;-67
2021/11/30 09:59:47;;;;;;;7.35;1.50;;;;;;;22.55;42.35;100897.56;4876965;29;20442;-67
2021/11/30 10:02:15;;;;;;;8.30;1.48;;;;;;;22.66;42.82;100883.75;4890873;29;20049;-67
2021/11/30 10:04:43;;;;;;;10.10;1.30;;;;;;;22.69;42.61;100885.47;4879153;29;20077;-67
2021/11/30 10:07:11;;;;;;;11.23;2.90;;;;;;;22.64;42.57;100891.00;4876233;29;20117;-67
2021/11/30 10:09:39;;;;;;;8.02;1.75;;;;;;;22.62;42.79;100893.75;4875090;29;20045;-67
2021/11/30 10:12:09;;;;;;;13.23;1.50;;;;;;;22.67;42.38;100889.09;4889503;29;20041;-67
2021/11/30 10:14:40;;;;;;;11.93;1.40;;;;;;;22.76;41.93;100896.03;4875125;29;20041;-67
2021/11/30 10:17:12;;;;;;;9.60;1.10;;;;;;;22.72;39.92;100893.44;4893868;29;20063;-67
2021/11/30 10:19:41;;;;;;;10.00;1.42;;;;;;;22.59;38.65;100880.38;4879054;29;20137;-68
2021/11/30 10:22:09;;;;;;;10.23;1.63;;;;;;;22.57;38.11;100887.63;4875456;29;20067;-67
2021/11/30 10:24:37;;;;;;;6.97;1.52;;;;;;;22.60;38.05;100873.19;4873577;29;20458;-67
2021/11/30 10:27:05;;;;;;;8.52;1.38;;;;;;;22.51;37.80;100865.41;4890185;29;20493;-67
2021/11/30 10:29:43;;;;;;;7.53;1.33;;;;;;;22.45;37.37;100866.47;4890660;29;20100;-68
2021/11/30 10:32:11;;;;;;;8.75;1.02;;;;;;;22.50;37.54;100871.72;4895766;29;20529;-67
2021/11/30 10:34:38;;;;;;;6.20;1.08;;;;;;;22.57;37.52;100873.28;4876317;29;20045;-67
2021/11/30 10:37:11;;;;;;;10.05;1.90;;;;;;;22.50;37.35;100860.97;4876334;29;20053;-67
2021/11/30 10:39:42;;;;;;;9.00;1.70;;;;;;;22.36;36.45;100847.06;4874900;29;20051;-67
2021/11/30 10:42:16;;;;;;;7.88;1.13;;;;;;;22.34;36.46;100856.97;4877169;29;20045;-68
2021/11/30 10:44:46;;;;;;;5.45;1.48;;;;;;;22.40;36.38;100864.84;4905983;29;20045;-67
2021/11/30 10:47:16;;;;;;;6.82;1.00;;;;;;;22.38;36.32;100853.28;4874476;29;20097;-68
2021/11/30 10:49:50;;;;;;;9.68;1.38;;;;;;;22.54;36.77;100854.53;4881041;29;20367;-67
2021/11/30 10:52:19;;;;;;;8.15;1.73;;;;;;;22.82;37.01;100847.38;4884218;29;20109;-67
2021/11/30 10:54:47;;;;;;;10.95;1.75;;;;;;;23.01;37.13;100864.66;4880241;29;20125;-67
2021/11/30 10:57:14;;;;;;;9.07;1.30;;;;;;;22.98;37.34;100859.38;4889133;29;20113;-67
2021/11/30 10:59:43;;;;;;;16.02;2.17;;;;;;;23.08;38.97;100859.06;4873563;29;20076;-67
2021/11/30 11:02:13;;;;;;;17.10;3.05;;;;;;;23.18;41.57;100861.38;4876855;29;20045;-67
2021/11/30 11:04:42;;;;;;;17.00;2.75;;;;;;;23.25;43.55;100857.53;4872707;29;20418;-67
2021/11/30 11:07:11;;;;;;;13.77;2.70;;;;;;;23.37;44.17;100856.22;4883699;29;20044;-67
2021/11/30 11:09:40;;;;;;;11.15;2.92;;;;;;;23.38;44.73;100857.97;4890190;29;20045;-67
2021/11/30 11:12:10;;;;;;;14.95;3.00;;;;;;;23.51;44.94;100853.06;4885120;29;20051;-67
2021/11/30 11:14:45;;;;;;;17.33;2.45;;;;;;;23.51;44.50;100844.97;4908349;29;20060;-67
2021/11/30 11:17:28;;;;;;;13.00;2.67;;;;;;;23.44;44.59;100855.94;4883483;29;20127;-67
2021/11/30 11:19:57;;;;;;;13.80;2.45;;;;;;;23.46;44.58;100850.50;4875909;29;20462;-67
2021/11/30 11:22:27;;;;;;;10.15;1.95;;;;;;;23.52;43.93;100853.00;4885366;29;20383;-67
2021/11/30 11:24:58;;;;;;;11.10;2.00;;;;;;;23.45;42.80;100849.63;4890560;29;20045;-67
2021/11/30 11:27:37;;;;;;;10.73;2.03;;;;;;;23.44;42.39;100834.38;4875760;29;20412;-67
2021/11/30 11:30:06;;;;;;;12.93;2.00;;;;;;;23.63;42.24;100833.78;4875653;29;20045;-68
2021/11/30 11:32:36;;;;;;;15.15;2.35;;;;;;;23.72;41.59;100844.19;4876300;29;20051;-67
2021/11/30 11:35:05;;;;;;;15.98;2.60;;;;;;;23.79;41.72;100845.72;4876125;29;20064;-68